map of HFE home
HFE - Airport
Location
City:  Hefei, Anhui, China
Name:Hefei Xinqiao International Airport
ICAO:ZSOF
IATA:HFE

Details
Type:Airport (Aerodrome, Airfield)
Use:Public/Civil, International (customs port of entry)
Latitude:31°59'18"N (31.988333)
Longitude:116°58'35"E (116.976389)
Elevation:207 ft (63 m)
Variation:5.32°W (WMM2015 magnetic declination)
-0.07° annual change
Runways:1
Longest:11155 × 148 ft (3400 × 45 m), paved

Time
Time Zone:UTC+8
Local Time:

Weather
METAR:ZSOF 131700Z 08002MPS 3500 BR NSC M01/M04 Q1036 NOSIG

Related Locations
Nearby:
Farthest:SAOM: 12366 mi / 19902 km
Marcos Juárez, X, AR

Find:

   beyond  
but within

Other Information
Maps:
NOTAMs:
Links:
Sources:

  
  • flag of China
  

Sectional Chart

Flight Planning
at skyvector.com

Satellite Image

Google Maps Satellite view

 

Copyright © 2004-2018 Karl L. Swartz. All rights reserved.
The Great Circle Mapper name and logo are trademarks of the Great Circle Mapper.
All other trademarks mentioned herein belong to their respective owners.
Please see credits for attibutions and further copyright information.

  Follow gcmap on Facebook Follow gcmap on Twitter Follow gcmap on Google+ GCmap on LinkedIn

hCard Microformat

Geo Microformat